Time;durP1;ratioP1;P1;durP2;ratioP2;P2;SDS_P1;SDS_P2;PMS_P1;PMS_P2;Temp;Humidity;BMP_temperature;BMP_pressure;BME280_temperature;BME280_humidity;BME280_pressure;Samples;Min_cycle;Max_cycle;Signal;HPM_P1;HPM_P2
2023/03/24 00:02:18;;;;;;;2.95;1.70;;;13.00;99.90;;;;;;5061769;28;20020;-43
2023/03/24 00:04:48;;;;;;;3.92;2.00;;;13.00;99.90;;;;;;5063039;28;20024;-43
2023/03/24 00:07:14;;;;;;;2.60;1.75;;;13.00;99.90;;;;;;5060922;28;20055;-43
2023/03/24 00:09:41;;;;;;;3.97;1.90;;;13.00;99.90;;;;;;5061929;28;20031;-43
2023/03/24 00:12:09;;;;;;;4.25;2.10;;;13.00;99.90;;;;;;5062173;28;20048;-42
2023/03/24 00:14:37;;;;;;;3.97;2.00;;;13.00;99.90;;;;;;5060907;28;20119;-43
2023/03/24 00:17:04;;;;;;;4.07;2.17;;;13.00;99.90;;;;;;5061525;28;20036;-43
2023/03/24 00:19:32;;;;;;;3.88;2.30;;;13.00;99.90;;;;;;5061049;28;20589;-43
2023/03/24 00:21:59;;;;;;;4.72;1.85;;;13.00;99.90;;;;;;5060998;28;20041;-43
2023/03/24 00:24:26;;;;;;;3.75;1.80;;;13.00;99.90;;;;;;5061778;28;20288;-43
2023/03/24 00:26:56;;;;;;;2.92;1.77;;;13.00;99.90;;;;;;5061293;28;20159;-43
2023/03/24 00:29:22;;;;;;;4.15;1.88;;;13.00;99.90;;;;;;5061095;28;20032;-43
2023/03/24 00:31:52;;;;;;;3.78;1.77;;;13.00;99.90;;;;;;5061848;28;20059;-42
2023/03/24 00:34:21;;;;;;;5.65;2.80;;;13.00;99.90;;;;;;5059438;28;20021;-43
2023/03/24 00:36:49;;;;;;;4.07;2.00;;;13.00;99.90;;;;;;5060365;28;20032;-42
2023/03/24 00:39:19;;;;;;;2.25;1.58;;;13.00;99.90;;;;;;5061363;28;20025;-43
2023/03/24 00:41:46;;;;;;;4.75;1.70;;;13.00;99.90;;;;;;5060623;28;20025;-43
2023/03/24 00:44:22;;;;;;;3.92;2.22;;;13.00;99.90;;;;;;5061036;28;20391;-43
2023/03/24 00:46:55;;;;;;;4.13;1.95;;;13.00;99.90;;;;;;5061343;28;20029;-45
2023/03/24 00:49:41;;;;;;;4.35;2.47;;;13.00;99.90;;;;;;5059649;28;20020;-43
2023/03/24 00:52:09;;;;;;;3.22;1.75;;;13.00;99.90;;;;;;5060594;28;20137;-43
2023/03/24 00:54:36;;;;;;;3.40;2.30;;;13.00;99.90;;;;;;5061882;28;20485;-43
2023/03/24 00:57:02;;;;;;;2.10;1.63;;;13.00;99.90;;;;;;5059879;28;20528;-43
2023/03/24 00:59:28;;;;;;;4.40;2.35;;;13.00;99.90;;;;;;5060731;28;20106;-43
2023/03/24 01:01:55;;;;;;;3.50;1.77;;;13.00;99.90;;;;;;5060542;28;20589;-43
2023/03/24 01:04:23;;;;;;;2.08;1.60;;;13.00;99.90;;;;;;5059975;28;20032;-43
2023/03/24 01:06:51;;;;;;;2.67;1.98;;;13.00;99.90;;;;;;5050209;28;20047;-43
2023/03/24 01:09:16;;;;;;;3.30;2.00;;;13.10;99.90;;;;;;5059873;28;20836;-43
2023/03/24 01:11:42;;;;;;;3.65;2.10;;;13.10;99.90;;;;;;5060800;28;20664;-43
2023/03/24 01:14:09;;;;;;;4.90;2.45;;;13.10;99.90;;;;;;5059917;28;20090;-43
2023/03/24 01:16:34;;;;;;;2.85;2.20;;;13.10;99.90;;;;;;5059647;28;20173;-43
2023/03/24 01:19:00;;;;;;;2.55;1.92;;;13.10;99.90;;;;;;5059940;28;20120;-42
2023/03/24 01:21:26;;;;;;;2.70;1.90;;;13.10;99.90;;;;;;5059411;28;20028;-42
2023/03/24 01:23:52;;;;;;;3.33;2.05;;;13.20;99.90;;;;;;5060491;28;20035;-42
2023/03/24 01:26:21;;;;;;;3.08;2.10;;;13.10;99.90;;;;;;5059926;28;20028;-42
2023/03/24 01:28:47;;;;;;;3.00;2.10;;;13.10;99.90;;;;;;5060367;28;20064;-43
2023/03/24 01:31:12;;;;;;;2.08;1.88;;;13.10;99.90;;;;;;5057952;28;20048;-43
2023/03/24 01:33:38;;;;;;;2.90;2.00;;;13.20;99.90;;;;;;5059847;28;20044;-44
2023/03/24 01:36:05;;;;;;;3.85;2.22;;;13.20;99.90;;;;;;5059663;28;20044;-43
2023/03/24 01:38:34;;;;;;;3.95;2.28;;;13.20;99.90;;;;;;5060242;28;20402;-43
2023/03/24 01:40:59;;;;;;;2.92;1.90;;;13.20;99.90;;;;;;5059314;28;20032;-42
2023/03/24 01:43:29;;;;;;;2.17;1.85;;;13.20;99.90;;;;;;5059632;28;20025;-43
2023/03/24 01:46:04;;;;;;;2.35;1.73;;;13.20;99.90;;;;;;5059393;28;20032;-42
2023/03/24 01:48:35;;;;;;;4.22;1.90;;;13.30;99.90;;;;;;5059460;28;20032;-42
2023/03/24 01:51:19;;;;;;;3.45;1.52;;;13.20;99.90;;;;;;5059581;28;20166;-42
2023/03/24 01:54:04;;;;;;;1.67;1.58;;;13.20;99.90;;;;;;5060228;28;20052;-42
2023/03/24 01:56:35;;;;;;;2.75;2.30;;;13.30;99.90;;;;;;5059892;28;20040;-42
2023/03/24 01:59:06;;;;;;;3.05;1.85;;;13.20;99.90;;;;;;5058854;28;20105;-42
2023/03/24 02:01:32;;;;;;;3.47;1.67;;;13.20;99.90;;;;;;5059935;28;20063;-43
2023/03/24 02:04:02;;;;;;;3.00;2.10;;;13.20;99.90;;;;;;5059115;28;21064;-42
2023/03/24 02:06:30;;;;;;;2.50;1.65;;;13.20;99.90;;;;;;5059173;28;20024;-44
2023/03/24 02:08:57;;;;;;;1.77;1.63;;;13.20;99.90;;;;;;5059572;28;20496;-42
2023/03/24 02:11:27;;;;;;;1.88;1.75;;;13.20;99.90;;;;;;5058747;28;20032;-43
2023/03/24 02:13:53;;;;;;;1.42;1.27;;;13.20;99.90;;;;;;5058863;28;20033;-42
2023/03/24 02:16:37;;;;;;;1.85;1.70;;;13.20;99.90;;;;;;5059315;28;20053;-43
2023/03/24 02:19:48;;;;;;;2.10;1.80;;;13.20;99.90;;;;;;5057419;28;20028;-43
2023/03/24 02:22:43;;;;;;;2.50;1.85;;;13.20;99.90;;;;;;5058858;28;20027;-43
2023/03/24 02:25:36;;;;;;;2.42;2.00;;;13.20;99.90;;;;;;5058802;28;20040;-42
2023/03/24 02:28:28;;;;;;;2.47;1.80;;;13.20;99.90;;;;;;5058114;28;20029;-42
2023/03/24 02:31:25;;;;;;;2.75;1.95;;;13.20;99.90;;;;;;5058975;28;20040;-42
2023/03/24 02:34:32;;;;;;;2.88;1.85;;;13.20;99.90;;;;;;5058655;28;20059;-43
2023/03/24 02:37:07;;;;;;;2.75;2.00;;;13.20;99.90;;;;;;5055662;28;20132;-42
2023/03/24 02:39:51;;;;;;;2.33;2.05;;;13.20;99.90;;;;;;5056831;28;20020;-43
2023/03/24 02:42:22;;;;;;;2.20;2.00;;;13.20;99.90;;;;;;5058874;28;20072;-43
2023/03/24 02:44:53;;;;;;;3.00;2.20;;;13.20;99.90;;;;;;5059029;28;20047;-44
2023/03/24 02:47:32;;;;;;;3.75;2.05;;;13.20;99.90;;;;;;5058139;28;20737;-44
2023/03/24 02:50:19;;;;;;;3.03;2.40;;;13.20;99.90;;;;;;5056688;28;20025;-44
2023/03/24 02:52:51;;;;;;;3.08;2.10;;;13.20;99.90;;;;;;5059581;28;20109;-44
2023/03/24 02:55:27;;;;;;;2.78;2.00;;;13.20;99.90;;;;;;5058608;28;20032;-43
2023/03/24 02:58:06;;;;;;;3.35;2.30;;;13.20;99.90;;;;;;5058805;28;20762;-42
2023/03/24 03:00:50;;;;;;;3.08;1.85;;;13.20;99.90;;;;;;5062512;28;20067;-43
2023/03/24 03:03:57;;;;;;;2.20;2.00;;;13.20;99.90;;;;;;5062633;28;20497;-43
2023/03/24 03:06:27;;;;;;;1.98;1.77;;;13.20;99.90;;;;;;5057493;28;20082;-44
2023/03/24 03:08:56;;;;;;;2.67;2.28;;;13.20;99.90;;;;;;5062282;28;20021;-42
2023/03/24 03:11:22;;;;;;;4.55;2.35;;;13.20;99.90;;;;;;5062764;28;20059;-42
2023/03/24 03:13:52;;;;;;;2.83;1.83;;;13.10;99.90;;;;;;5062506;28;20111;-42
2023/03/24 03:16:26;;;;;;;2.25;1.50;;;13.10;99.90;;;;;;5061765;28;20040;-42
2023/03/24 03:19:02;;;;;;;2.67;1.50;;;13.00;99.90;;;;;;5062593;28;20554;-42
2023/03/24 03:21:38;;;;;;;1.40;0.98;;;12.80;99.90;;;;;;5062601;28;20180;-43
2023/03/24 03:24:10;;;;;;;0.90;0.90;;;12.70;99.90;;;;;;5061298;28;20046;-42
2023/03/24 03:26:36;;;;;;;1.52;1.13;;;12.60;99.90;;;;;;5063056;28;20028;-42
2023/03/24 03:29:10;;;;;;;3.78;1.00;;;12.50;99.90;;;;;;5062095;28;20025;-42
2023/03/24 03:31:43;;;;;;;2.05;1.35;;;12.40;99.90;;;;;;5062053;28;20025;-43
2023/03/24 03:34:13;;;;;;;1.45;1.25;;;12.40;99.90;;;;;;5062322;28;20021;-43
2023/03/24 03:36:45;;;;;;;3.30;1.10;;;12.40;99.90;;;;;;5061500;28;20032;-43
2023/03/24 03:39:23;;;;;;;1.85;1.20;;;12.30;99.90;;;;;;5062386;28;20028;-43
2023/03/24 03:41:48;;;;;;;3.72;1.20;;;12.30;99.90;;;;;;5062057;28;20040;-43
2023/03/24 03:44:14;;;;;;;2.20;1.10;;;12.30;99.90;;;;;;5060348;28;20017;-43
2023/03/24 03:46:41;;;;;;;1.92;0.90;;;12.20;99.90;;;;;;5062484;28;20024;-43
2023/03/24 03:49:07;;;;;;;2.13;0.90;;;12.20;99.90;;;;;;5061957;28;20101;-43
2023/03/24 03:51:33;;;;;;;3.25;1.15;;;12.10;99.90;;;;;;5061529;28;20037;-43
2023/03/24 03:54:03;;;;;;;3.08;0.95;;;12.10;99.90;;;;;;5061536;28;20502;-44
2023/03/24 03:56:33;;;;;;;3.47;1.20;;;12.00;99.90;;;;;;5062462;28;20048;-44
2023/03/24 03:58:58;;;;;;;3.17;1.10;;;12.00;99.90;;;;;;5061472;28;20045;-44
2023/03/24 04:01:28;;;;;;;2.25;1.20;;;11.90;99.90;;;;;;5061306;28;20036;-43
2023/03/24 04:04:19;;;;;;;2.75;1.08;;;11.80;99.90;;;;;;5061702;28;20031;-43
2023/03/24 04:06:59;;;;;;;4.22;1.30;;;11.80;99.90;;;;;;5061076;28;20570;-44
2023/03/24 04:09:55;;;;;;;3.90;1.35;;;11.70;99.90;;;;;;5042121;28;20032;-44
2023/03/24 04:12:40;;;;;;;5.15;1.48;;;11.70;99.90;;;;;;5059307;28;20091;-43
2023/03/24 04:15:18;;;;;;;2.80;1.30;;;11.70;99.90;;;;;;5060940;28;20102;-43
2023/03/24 04:18:03;;;;;;;4.03;1.00;;;11.70;99.90;;;;;;5058145;28;20376;-43
2023/03/24 04:21:02;;;;;;;3.15;1.00;;;11.60;99.90;;;;;;5061548;28;20488;-43
2023/03/24 04:23:38;;;;;;;4.28;1.33;;;11.60;99.90;;;;;;5051237;28;20427;-42
2023/03/24 04:26:33;;;;;;;4.38;1.40;;;11.70;99.90;;;;;;5060038;28;20025;-43
2023/03/24 04:29:19;;;;;;;4.97;1.70;;;11.70;99.90;;;;;;5054245;28;20137;-42
2023/03/24 04:32:04;;;;;;;5.07;1.50;;;11.70;99.90;;;;;;5061246;28;20033;-42
2023/03/24 04:34:39;;;;;;;3.33;1.35;;;11.60;99.90;;;;;;5060767;28;20143;-42
2023/03/24 04:37:11;;;;;;;6.03;1.90;;;11.60;99.90;;;;;;5060913;28;20074;-43
2023/03/24 04:39:40;;;;;;;10.02;2.33;;;11.70;99.90;;;;;;5062124;28;20115;-44
2023/03/24 04:42:12;;;;;;;8.07;2.28;;;11.60;99.90;;;;;;5060054;28;20066;-43
2023/03/24 04:44:40;;;;;;;9.85;2.00;;;11.60;99.90;;;;;;5061381;28;20035;-44
2023/03/24 04:47:09;;;;;;;5.38;1.80;;;11.60;99.90;;;;;;5060201;28;20028;-42
2023/03/24 04:49:38;;;;;;;6.03;1.70;;;11.60;99.90;;;;;;5061256;28;20784;-42
2023/03/24 04:52:06;;;;;;;9.10;1.77;;;11.50;99.90;;;;;;5060444;28;20031;-43
2023/03/24 04:54:35;;;;;;;11.00;2.35;;;11.50;99.90;;;;;;5060615;28;20765;-42
2023/03/24 04:57:01;;;;;;;10.45;2.55;;;11.50;99.90;;;;;;5060579;28;20104;-42
2023/03/24 04:59:32;;;;;;;14.43;2.30;;;11.50;99.90;;;;;;5060765;28;20022;-42
2023/03/24 05:02:02;;;;;;;11.25;2.00;;;11.50;99.90;;;;;;5059337;28;20056;-42
2023/03/24 05:04:29;;;;;;;11.13;2.13;;;11.40;99.90;;;;;;5060750;28;20017;-43
2023/03/24 05:06:57;;;;;;;8.93;1.80;;;11.40;99.90;;;;;;5060832;28;20743;-42
2023/03/24 05:09:24;;;;;;;7.45;2.03;;;11.40;99.90;;;;;;5059848;28;20887;-43
2023/03/24 05:11:50;;;;;;;8.50;1.95;;;11.40;99.90;;;;;;5060763;28;20415;-42
2023/03/24 05:14:16;;;;;;;8.27;2.28;;;11.40;99.90;;;;;;5059212;28;20082;-42
2023/03/24 05:16:41;;;;;;;9.88;2.47;;;11.40;99.90;;;;;;5059733;28;20708;-43
2023/03/24 05:19:08;;;;;;;9.85;1.98;;;11.40;99.90;;;;;;5059890;28;20052;-43
2023/03/24 05:21:34;;;;;;;12.02;2.63;;;11.30;99.90;;;;;;5060388;28;20094;-43
2023/03/24 05:24:00;;;;;;;10.07;2.65;;;11.30;99.90;;;;;;5059504;28;20020;-42
2023/03/24 05:26:25;;;;;;;8.23;2.03;;;11.20;99.90;;;;;;5060151;28;20505;-42
2023/03/24 05:28:52;;;;;;;7.78;2.38;;;11.20;99.90;;;;;;5060368;28;20032;-43
2023/03/24 05:31:17;;;;;;;10.18;2.30;;;11.10;99.90;;;;;;5059468;28;20820;-43
2023/03/24 05:33:44;;;;;;;12.25;3.58;;;11.10;99.90;;;;;;5060150;28;20016;-43
2023/03/24 05:36:10;;;;;;;8.23;2.25;;;11.00;99.90;;;;;;5059284;28;20037;-43
2023/03/24 05:38:36;;;;;;;10.50;2.40;;;11.00;99.90;;;;;;5060462;28;20123;-43
2023/03/24 05:41:02;;;;;;;9.95;2.33;;;10.90;99.90;;;;;;5060656;28;20028;-43
2023/03/24 05:43:27;;;;;;;11.55;2.50;;;10.90;99.90;;;;;;5059434;28;20059;-43
2023/03/24 05:45:54;;;;;;;7.82;2.30;;;10.90;99.90;;;;;;5059959;28;20050;-43
2023/03/24 05:48:20;;;;;;;10.68;2.70;;;10.90;99.90;;;;;;5060207;28;20029;-43
2023/03/24 05:50:46;;;;;;;10.43;2.63;;;10.90;99.90;;;;;;5058683;28;20032;-43
2023/03/24 05:53:12;;;;;;;9.13;2.60;;;11.00;99.90;;;;;;5059156;28;20155;-43
2023/03/24 05:55:38;;;;;;;8.40;2.42;;;11.00;99.90;;;;;;5059540;28;20120;-43
2023/03/24 05:58:14;;;;;;;7.47;2.70;;;11.10;99.90;;;;;;5058333;28;20024;-43
2023/03/24 06:00:43;;;;;;;9.50;2.60;;;11.10;99.90;;;;;;5059899;28;20824;-43
2023/03/24 06:03:08;;;;;;;11.90;2.90;;;11.10;99.90;;;;;;5059299;28;20036;-42
2023/03/24 06:05:34;;;;;;;8.65;2.63;;;11.20;99.90;;;;;;5058910;28;20032;-42
2023/03/24 06:08:00;;;;;;;11.18;3.15;;;11.20;99.90;;;;;;5056384;28;20082;-42
2023/03/24 06:10:27;;;;;;;9.25;2.75;;;11.20;99.90;;;;;;5058741;28;20032;-42
2023/03/24 06:12:54;;;;;;;11.80;2.70;;;11.30;99.90;;;;;;5057700;28;20025;-43
2023/03/24 06:15:21;;;;;;;8.80;2.53;;;11.30;99.90;;;;;;5058248;28;20028;-42
2023/03/24 06:17:49;;;;;;;6.55;2.58;;;11.30;99.90;;;;;;5054663;28;20038;-42
2023/03/24 06:20:17;;;;;;;10.20;2.88;;;11.40;99.90;;;;;;5056606;28;20028;-42
2023/03/24 06:22:44;;;;;;;11.02;2.60;;;11.40;99.90;;;;;;5058602;28;20031;-43
2023/03/24 06:25:15;;;;;;;7.93;2.67;;;11.40;99.90;;;;;;5057945;28;20021;-43
2023/03/24 06:27:47;;;;;;;8.57;2.90;;;11.40;99.90;;;;;;5057955;28;20028;-43
2023/03/24 06:30:16;;;;;;;7.28;3.10;;;11.50;99.90;;;;;;5057986;28;20021;-42
2023/03/24 06:32:45;;;;;;;10.50;2.90;;;11.50;99.90;;;;;;5047097;28;20040;-43
2023/03/24 06:35:14;;;;;;;10.27;2.83;;;11.50;99.90;;;;;;5061268;28;20033;-43
2023/03/24 06:37:43;;;;;;;8.20;2.38;;;11.50;99.90;;;;;;5063274;28;20482;-43
2023/03/24 06:40:13;;;;;;;9.20;3.10;;;11.50;99.90;;;;;;5061811;28;20031;-42
2023/03/24 06:42:38;;;;;;;7.22;2.15;;;11.50;99.90;;;;;;5063306;28;20039;-44
2023/03/24 06:45:05;;;;;;;7.60;2.40;;;11.50;99.90;;;;;;5062637;28;20033;-42
2023/03/24 06:47:30;;;;;;;8.75;3.03;;;11.60;99.90;;;;;;5062707;28;20070;-42
2023/03/24 06:49:56;;;;;;;7.50;2.17;;;11.60;99.90;;;;;;5063153;28;20028;-43
2023/03/24 06:52:23;;;;;;;7.72;2.30;;;11.60;99.90;;;;;;5062243;28;20020;-44
2023/03/24 06:54:49;;;;;;;10.57;2.75;;;11.60;99.90;;;;;;5062916;28;20131;-44
2023/03/24 06:57:15;;;;;;;8.40;2.60;;;11.70;99.90;;;;;;5050699;28;20028;-44
2023/03/24 06:59:41;;;;;;;9.45;2.90;;;11.60;99.90;;;;;;5050174;28;20093;-44
2023/03/24 07:02:11;;;;;;;8.00;2.50;;;11.70;99.90;;;;;;5048478;28;20036;-44
2023/03/24 07:04:39;;;;;;;11.02;3.08;;;11.70;99.90;;;;;;5049201;28;20405;-43
2023/03/24 07:07:05;;;;;;;7.25;2.40;;;11.70;99.90;;;;;;5047788;28;20071;-43
2023/03/24 07:09:31;;;;;;;11.35;2.70;;;11.70;99.90;;;;;;5047732;28;20409;-43
2023/03/24 07:11:57;;;;;;;12.27;3.00;;;11.70;99.90;;;;;;5048188;28;20075;-43
2023/03/24 07:14:25;;;;;;;6.03;2.38;;;11.80;99.90;;;;;;5048055;28;20032;-43
2023/03/24 07:16:58;;;;;;;8.30;2.42;;;11.80;99.90;;;;;;5047390;28;20036;-42
2023/03/24 07:19:24;;;;;;;8.32;2.78;;;11.80;99.90;;;;;;5049198;28;20597;-43
2023/03/24 07:21:49;;;;;;;8.55;2.72;;;11.80;99.90;;;;;;5048677;28;20033;-42
2023/03/24 07:24:16;;;;;;;14.65;3.38;;;11.90;99.90;;;;;;5048746;28;20036;-43
2023/03/24 07:26:42;;;;;;;10.70;3.00;;;11.90;99.90;;;;;;5049747;28;20058;-43
2023/03/24 07:29:07;;;;;;;10.80;2.55;;;12.00;99.90;;;;;;5048420;28;20036;-43
2023/03/24 07:31:36;;;;;;;11.57;3.00;;;12.00;99.90;;;;;;5048268;28;20254;-43
2023/03/24 07:34:03;;;;;;;9.88;2.85;;;12.10;99.90;;;;;;5047638;28;20087;-44
2023/03/24 07:36:28;;;;;;;8.32;2.92;;;12.10;99.90;;;;;;5047917;28;20044;-43
2023/03/24 07:38:54;;;;;;;10.43;2.42;;;12.20;99.90;;;;;;5048487;28;20024;-43
2023/03/24 07:41:20;;;;;;;8.25;2.53;;;12.20;99.90;;;;;;5048927;28;20742;-44
2023/03/24 07:43:45;;;;;;;7.82;2.30;;;12.20;99.90;;;;;;5049152;28;20028;-42
2023/03/24 07:46:11;;;;;;;9.68;2.53;;;12.30;99.90;;;;;;5048621;28;20698;-43
2023/03/24 07:48:36;;;;;;;8.00;2.75;;;12.30;99.90;;;;;;5049336;28;20071;-43
2023/03/24 07:51:02;;;;;;;7.88;2.38;;;12.30;99.90;;;;;;5047482;28;20478;-43
2023/03/24 07:53:27;;;;;;;8.10;2.65;;;12.40;99.90;;;;;;5049386;28;20045;-44
2023/03/24 07:55:53;;;;;;;7.15;2.50;;;12.40;99.90;;;;;;5048250;28;20079;-44
2023/03/24 07:58:19;;;;;;;8.88;3.28;;;12.40;99.90;;;;;;5048162;28;20025;-44
2023/03/24 08:00:44;;;;;;;11.57;2.20;;;12.50;99.90;;;;;;5048847;28;20483;-44
2023/03/24 08:03:15;;;;;;;6.63;2.05;;;12.60;99.90;;;;;;5047269;28;20028;-44
2023/03/24 08:05:42;;;;;;;10.38;2.60;;;12.70;99.90;;;;;;5047950;28;20036;-44
2023/03/24 08:08:09;;;;;;;15.38;3.90;;;12.80;99.90;;;;;;5048159;28;20021;-43
2023/03/24 08:10:35;;;;;;;8.85;2.67;;;12.80;99.90;;;;;;5049274;28;20125;-43
2023/03/24 08:13:01;;;;;;;9.63;2.58;;;12.80;99.90;;;;;;5048008;28;20027;-42
2023/03/24 08:15:27;;;;;;;8.27;2.50;;;12.90;99.90;;;;;;5048495;28;20081;-43
2023/03/24 08:17:55;;;;;;;8.77;2.72;;;13.00;99.90;;;;;;5048037;28;20028;-43
2023/03/24 08:20:23;;;;;;;10.60;3.13;;;13.00;99.90;;;;;;5048333;28;20047;-43
2023/03/24 08:22:49;;;;;;;9.43;2.72;;;13.10;99.90;;;;;;5048012;28;20028;-43
2023/03/24 08:25:17;;;;;;;11.25;2.70;;;13.10;99.90;;;;;;5047016;28;20032;-43
2023/03/24 08:27:43;;;;;;;6.15;2.10;;;13.10;99.90;;;;;;5048675;28;20135;-42
2023/03/24 08:30:12;;;;;;;12.05;2.55;;;13.20;99.90;;;;;;5046308;28;20036;-43
2023/03/24 08:32:42;;;;;;;9.00;2.67;;;13.20;99.90;;;;;;5048048;28;20029;-43
2023/03/24 08:35:11;;;;;;;10.13;2.53;;;13.20;99.90;;;;;;5047677;28;20040;-43
2023/03/24 08:37:36;;;;;;;8.57;2.70;;;13.20;99.90;;;;;;5049359;28;20619;-43
2023/03/24 08:40:02;;;;;;;5.78;2.30;;;13.20;99.90;;;;;;5047469;28;20028;-43
2023/03/24 08:42:28;;;;;;;10.23;2.35;;;13.20;99.90;;;;;;5047706;28;20230;-43
2023/03/24 08:44:53;;;;;;;9.15;2.50;;;13.20;99.90;;;;;;5048830;28;20028;-43
2023/03/24 08:47:19;;;;;;;10.68;2.67;;;13.10;99.90;;;;;;5048011;28;20143;-43
2023/03/24 08:49:45;;;;;;;9.38;2.63;;;13.20;99.90;;;;;;5048190;28;20024;-43
2023/03/24 08:52:10;;;;;;;9.13;2.55;;;13.20;99.90;;;;;;5046709;28;20530;-43
2023/03/24 08:54:36;;;;;;;10.88;2.45;;;13.20;99.90;;;;;;5047674;28;20048;-43
2023/03/24 08:57:01;;;;;;;8.88;2.70;;;13.20;99.90;;;;;;5047947;28;21617;-44
2023/03/24 08:59:27;;;;;;;8.13;2.83;;;13.30;99.90;;;;;;5048273;28;20059;-43
2023/03/24 09:01:52;;;;;;;11.32;2.50;;;13.40;99.90;;;;;;5047003;28;20043;-43
2023/03/24 09:04:18;;;;;;;11.52;2.78;;;13.40;99.90;;;;;;5047795;28;20038;-43
2023/03/24 09:06:44;;;;;;;9.75;2.55;;;13.40;99.90;;;;;;5046881;28;20105;-43
2023/03/24 09:09:09;;;;;;;8.70;2.55;;;13.50;99.90;;;;;;5047288;28;20029;-43
2023/03/24 09:11:35;;;;;;;8.55;2.67;;;13.50;99.90;;;;;;5048389;28;20105;-43
2023/03/24 09:14:03;;;;;;;9.02;2.72;;;13.50;99.90;;;;;;5047985;28;20064;-43
2023/03/24 09:16:33;;;;;;;9.10;2.88;;;13.60;99.90;;;;;;5047129;28;20534;-44
2023/03/24 09:19:01;;;;;;;10.43;3.03;;;13.60;99.90;;;;;;5048044;28;20032;-43
2023/03/24 09:21:27;;;;;;;8.88;2.78;;;13.60;99.90;;;;;;5046127;28;20302;-44
2023/03/24 09:23:52;;;;;;;7.78;2.60;;;13.60;99.90;;;;;;5047929;28;20578;-44
2023/03/24 09:26:18;;;;;;;8.07;2.13;;;13.60;99.90;;;;;;5046381;28;20784;-44
2023/03/24 09:28:43;;;;;;;11.98;3.00;;;13.60;99.90;;;;;;5047648;28;20420;-43
2023/03/24 09:31:10;;;;;;;6.45;2.17;;;13.70;99.90;;;;;;5047280;28;20885;-43
2023/03/24 09:33:35;;;;;;;5.57;1.92;;;13.70;99.90;;;;;;5048201;28;20634;-43
2023/03/24 09:36:03;;;;;;;8.88;1.85;;;13.80;99.90;;;;;;5046747;28;20548;-43
2023/03/24 09:38:29;;;;;;;8.43;2.22;;;13.80;99.90;;;;;;5048539;28;20028;-43
2023/03/24 09:40:59;;;;;;;8.90;2.55;;;13.90;99.90;;;;;;5048072;28;20089;-43
2023/03/24 09:43:38;;;;;;;6.28;1.88;;;13.90;99.90;;;;;;5045709;28;20103;-43
2023/03/24 09:46:12;;;;;;;4.97;1.80;;;13.90;99.90;;;;;;5047281;28;20036;-43
2023/03/24 09:48:52;;;;;;;6.00;1.75;;;13.90;99.90;;;;;;5047523;28;20035;-43
2023/03/24 09:51:30;;;;;;;7.20;1.98;;;13.90;99.90;;;;;;5046696;28;20028;-44
2023/03/24 09:54:21;;;;;;;6.78;2.47;;;13.90;99.90;;;;;;5047595;28;20044;-43
2023/03/24 09:56:47;;;;;;;10.82;3.13;;;13.90;99.90;;;;;;5046115;28;20063;-44
2023/03/24 09:59:20;;;;;;;6.90;2.33;;;13.80;99.90;;;;;;5047082;28;20784;-44
2023/03/24 10:01:46;;;;;;;5.13;1.70;;;13.90;99.90;;;;;;5047729;28;20751;-43
2023/03/24 10:04:18;;;;;;;7.55;1.70;;;14.00;99.90;;;;;;5046617;28;20017;-43
2023/03/24 10:06:44;;;;;;;6.25;1.98;;;14.10;99.90;;;;;;5047110;28;20033;-43
2023/03/24 10:09:21;;;;;;;8.88;2.05;;;14.10;99.90;;;;;;5046542;28;20031;-43
2023/03/24 10:12:11;;;;;;;7.85;1.75;;;14.00;99.90;;;;;;5046597;28;20064;-43
2023/03/24 10:14:58;;;;;;;7.90;1.90;;;14.00;99.90;;;;;;5047610;28;20024;-43
2023/03/24 10:17:34;;;;;;;6.50;1.77;;;13.90;99.90;;;;;;5046295;28;20083;-43
2023/03/24 10:20:35;;;;;;;5.72;1.80;;;13.90;99.90;;;;;;5047771;28;20029;-43
2023/03/24 10:23:26;;;;;;;7.53;2.10;;;13.90;99.90;;;;;;5047797;28;20025;-44
2023/03/24 10:26:07;;;;;;;7.03;1.90;;;13.80;99.90;;;;;;5047205;28;20140;-43
2023/03/24 10:28:42;;;;;;;8.60;2.28;;;13.70;99.90;;;;;;5048560;28;20036;-44
2023/03/24 10:31:12;;;;;;;6.72;2.08;;;13.70;99.90;;;;;;5047153;28;20025;-44
2023/03/24 10:33:41;;;;;;;6.82;2.17;;;13.70;99.90;;;;;;5047464;28;20040;-43
2023/03/24 10:36:14;;;;;;;7.32;1.80;;;13.70;99.90;;;;;;5047101;28;20136;-45
2023/03/24 10:38:41;;;;;;;9.40;2.40;;;13.70;99.90;;;;;;5047366;28;20118;-44
2023/03/24 10:41:12;;;;;;;5.00;1.77;;;13.80;99.90;;;;;;5046954;28;20028;-45
2023/03/24 10:43:38;;;;;;;6.60;2.33;;;14.10;99.90;;;;;;5047295;28;20052;-45
2023/03/24 10:46:05;;;;;;;5.78;2.20;;;14.30;99.90;;;;;;5045839;28;20049;-44
2023/03/24 10:48:41;;;;;;;7.63;2.00;;;14.50;99.90;;;;;;5047328;28;20032;-46
2023/03/24 10:51:14;;;;;;;7.60;2.00;;;14.50;99.90;;;;;;5047183;28;20024;-44
2023/03/24 10:53:40;;;;;;;7.90;2.10;;;14.60;99.90;;;;;;5046279;28;20041;-44
2023/03/24 10:56:06;;;;;;;8.95;1.92;;;14.60;99.90;;;;;;5046052;28;20055;-44
2023/03/24 10:58:40;;;;;;;9.57;1.85;;;14.50;99.90;;;;;;5047370;28;20029;-44
2023/03/24 11:01:18;;;;;;;7.82;2.03;;;14.50;99.90;;;;;;5047016;28;20024;-45
2023/03/24 11:03:44;;;;;;;7.28;1.90;;;14.50;99.90;;;;;;5047689;28;20031;-45
2023/03/24 11:06:17;;;;;;;8.23;2.50;;;14.40;99.90;;;;;;5046736;28;20017;-44
2023/03/24 11:08:43;;;;;;;7.32;1.92;;;14.40;99.90;;;;;;5046216;28;20487;-43
2023/03/24 11:11:14;;;;;;;7.90;2.10;;;14.40;99.90;;;;;;5046484;28;20032;-42
2023/03/24 11:13:39;;;;;;;4.85;2.50;;;14.40;99.90;;;;;;5045802;28;20055;-44
2023/03/24 11:16:13;;;;;;;4.95;1.90;;;14.40;99.90;;;;;;5045823;28;20056;-43
2023/03/24 11:19:01;;;;;;;6.75;2.30;;;14.40;99.90;;;;;;5047408;28;20032;-44
2023/03/24 11:21:28;;;;;;;6.20;2.17;;;14.30;99.90;;;;;;5048476;28;20677;-44
2023/03/24 11:23:58;;;;;;;6.50;1.95;;;14.30;99.90;;;;;;5050610;28;20028;-44
2023/03/24 11:26:32;;;;;;;6.65;2.15;;;14.20;99.90;;;;;;5050040;28;20443;-44
2023/03/24 11:29:12;;;;;;;3.97;1.30;;;14.10;99.90;;;;;;5049596;28;20685;-45
2023/03/24 11:31:39;;;;;;;5.53;1.40;;;14.10;99.90;;;;;;5050581;28;20111;-45
2023/03/24 11:34:24;;;;;;;3.60;1.25;;;14.00;99.90;;;;;;5048339;28;20029;-45
2023/03/24 11:36:57;;;;;;;5.57;1.20;;;14.10;99.90;;;;;;5049005;28;20048;-45
2023/03/24 11:39:25;;;;;;;2.20;1.02;;;14.10;99.90;;;;;;5050585;28;20074;-45
2023/03/24 11:42:10;;;;;;;2.67;1.00;;;14.20;99.90;;;;;;5049124;28;20113;-44
2023/03/24 11:44:52;;;;;;;3.13;0.95;;;14.20;99.90;;;;;;5050985;28;20175;-46
2023/03/24 11:47:29;;;;;;;2.30;1.33;;;14.20;99.90;;;;;;5048407;28;20032;-44
2023/03/24 11:50:10;;;;;;;3.05;0.90;;;14.30;99.90;;;;;;5050165;28;20399;-45
2023/03/24 11:52:43;;;;;;;3.13;1.08;;;14.40;99.90;;;;;;5049315;28;20037;-43
2023/03/24 11:55:35;;;;;;;3.10;0.90;;;14.50;99.90;;;;;;5049875;28;20040;-45
2023/03/24 11:58:26;;;;;;;2.95;1.00;;;14.80;99.90;;;;;;5048621;28;20109;-44
2023/03/24 12:01:08;;;;;;;2.58;1.10;;;14.90;99.90;;;;;;5049960;28;20028;-44
2023/03/24 12:04:20;;;;;;;3.10;1.17;;;14.80;99.90;;;;;;5049032;28;20033;-44
2023/03/24 12:06:46;;;;;;;3.55;1.20;;;14.70;99.90;;;;;;5058423;28;20855;-45
2023/03/24 12:09:37;;;;;;;4.28;1.10;;;14.50;99.90;;;;;;5048662;28;20076;-44
2023/03/24 12:12:41;;;;;;;4.82;1.60;;;14.30;99.90;;;;;;5048647;28;20033;-44
2023/03/24 12:15:26;;;;;;;6.93;2.70;;;14.00;99.90;;;;;;5049473;28;20139;-34
2023/03/24 12:18:16;;;;;;;4.10;1.85;;;13.60;99.90;;;;;;5049219;28;20129;-34
2023/03/24 12:20:47;;;;;;;6.38;2.10;;;13.20;99.90;;;;;;5049622;28;20033;-33
2023/03/24 12:23:27;;;;;;;4.60;1.65;;;12.80;99.90;;;;;;5048046;28;20517;-34
2023/03/24 12:26:05;;;;;;;3.88;1.02;;;12.50;99.90;;;;;;5045906;28;20070;-33
2023/03/24 12:29:02;;;;;;;7.40;2.25;;;12.20;99.90;;;;;;5048664;28;20087;-34
2023/03/24 12:31:43;;;;;;;3.58;1.40;;;12.00;99.90;;;;;;5044658;28;20056;-34
2023/03/24 12:34:38;;;;;;;3.67;1.00;;;11.90;99.90;;;;;;5047680;28;20035;-34
2023/03/24 12:37:25;;;;;;;6.85;1.00;;;11.80;99.90;;;;;;5047409;28;20589;-33
2023/03/24 12:40:27;;;;;;;3.38;0.80;;;11.70;99.90;;;;;;5048481;28;20063;-35
2023/03/24 12:43:17;;;;;;;3.63;1.05;;;11.70;99.90;;;;;;5049588;28;20036;-34
2023/03/24 12:45:42;;;;;;;2.13;1.10;;;11.70;99.90;;;;;;5048063;28;20743;-33
2023/03/24 12:48:26;;;;;;;3.42;1.02;;;11.80;99.90;;;;;;5057346;28;20078;-34
2023/03/24 12:51:13;;;;;;;2.60;0.80;;;11.90;99.90;;;;;;5062656;28;20029;-34
2023/03/24 12:54:21;;;;;;;6.10;0.90;;;12.00;99.90;;;;;;5062273;28;20057;-34
2023/03/24 12:56:52;;;;;;;2.47;0.98;;;12.20;99.90;;;;;;5036980;28;20036;-34
2023/03/24 12:59:26;;;;;;;2.65;1.10;;;12.40;99.90;;;;;;5055566;28;20538;-34
2023/03/24 13:01:59;;;;;;;3.47;1.10;;;12.50;99.90;;;;;;5062414;28;20044;-35
2023/03/24 13:04:32;;;;;;;4.70;1.50;;;12.60;99.90;;;;;;5060432;28;20035;-35
2023/03/24 13:07:07;;;;;;;4.55;1.17;;;12.80;99.90;;;;;;5059444;28;20052;-34
2023/03/24 13:09:54;;;;;;;3.22;1.30;;;13.00;99.90;;;;;;5060400;28;20098;-34
2023/03/24 13:12:51;;;;;;;4.63;1.85;;;13.20;99.90;;;;;;5040428;28;20048;-34